sensor_id;sensor_type;location;lat;lon;timestamp;P1;durP1;ratioP1;P2;durP2;ratioP2
47367;SDS011;34646;47.964;7.982;2023-05-07T00:04:20;1.23;;;0.95;;
47367;SDS011;34646;47.964;7.982;2023-05-07T00:10:21;1.60;;;0.93;;
47367;SDS011;34646;47.964;7.982;2023-05-07T00:16:23;1.65;;;0.88;;
47367;SDS011;34646;47.964;7.982;2023-05-07T00:22:24;1.15;;;0.90;;
47367;SDS011;34646;47.964;7.982;2023-05-07T00:28:25;1.17;;;0.87;;
47367;SDS011;34646;47.964;7.982;2023-05-07T00:34:26;1.13;;;0.70;;
47367;SDS011;34646;47.964;7.982;2023-05-07T00:40:27;1.57;;;0.77;;
47367;SDS011;34646;47.964;7.982;2023-05-07T00:46:28;1.30;;;0.80;;
47367;SDS011;34646;47.964;7.982;2023-05-07T00:52:30;1.10;;;0.70;;
47367;SDS011;34646;47.964;7.982;2023-05-07T00:58:31;1.40;;;0.77;;
47367;SDS011;34646;47.964;7.982;2023-05-07T01:04:33;1.27;;;0.80;;
47367;SDS011;34646;47.964;7.982;2023-05-07T01:10:34;1.13;;;1.02;;
47367;SDS011;34646;47.964;7.982;2023-05-07T01:16:35;1.07;;;0.80;;
47367;SDS011;34646;47.964;7.982;2023-05-07T01:22:37;0.98;;;0.70;;
47367;SDS011;34646;47.964;7.982;2023-05-07T01:28:40;1.05;;;0.85;;
47367;SDS011;34646;47.964;7.982;2023-05-07T01:34:41;0.95;;;0.85;;
47367;SDS011;34646;47.964;7.982;2023-05-07T01:40:45;1.10;;;0.80;;
47367;SDS011;34646;47.964;7.982;2023-05-07T01:46:46;0.90;;;0.70;;
47367;SDS011;34646;47.964;7.982;2023-05-07T01:52:49;1.02;;;0.80;;
47367;SDS011;34646;47.964;7.982;2023-05-07T01:58:51;1.20;;;0.80;;
47367;SDS011;34646;47.964;7.982;2023-05-07T02:04:52;1.00;;;0.80;;
47367;SDS011;34646;47.964;7.982;2023-05-07T02:16:54;1.40;;;0.73;;
47367;SDS011;34646;47.964;7.982;2023-05-07T02:22:56;1.25;;;0.80;;
47367;SDS011;34646;47.964;7.982;2023-05-07T02:28:59;0.68;;;0.60;;
47367;SDS011;34646;47.964;7.982;2023-05-07T02:35:00;1.23;;;0.80;;
47367;SDS011;34646;47.964;7.982;2023-05-07T02:41:01;1.20;;;0.80;;
47367;SDS011;34646;47.964;7.982;2023-05-07T02:47:02;2.15;;;0.93;;
47367;SDS011;34646;47.964;7.982;2023-05-07T02:53:03;1.10;;;0.90;;
47367;SDS011;34646;47.964;7.982;2023-05-07T02:59:04;1.30;;;0.87;;
47367;SDS011;34646;47.964;7.982;2023-05-07T03:05:10;1.30;;;0.85;;
47367;SDS011;34646;47.964;7.982;2023-05-07T03:11:11;1.10;;;0.70;;
47367;SDS011;34646;47.964;7.982;2023-05-07T03:17:13;0.85;;;0.50;;
47367;SDS011;34646;47.964;7.982;2023-05-07T03:23:14;1.02;;;0.70;;
47367;SDS011;34646;47.964;7.982;2023-05-07T03:29:15;1.10;;;0.60;;
47367;SDS011;34646;47.964;7.982;2023-05-07T03:35:16;2.37;;;0.73;;
47367;SDS011;34646;47.964;7.982;2023-05-07T03:41:17;1.00;;;0.77;;
47367;SDS011;34646;47.964;7.982;2023-05-07T03:47:19;1.10;;;0.77;;
47367;SDS011;34646;47.964;7.982;2023-05-07T03:53:21;1.05;;;0.73;;
47367;SDS011;34646;47.964;7.982;2023-05-07T03:59:22;1.00;;;0.70;;
47367;SDS011;34646;47.964;7.982;2023-05-07T04:11:29;1.58;;;1.10;;
47367;SDS011;34646;47.964;7.982;2023-05-07T04:17:30;0.80;;;0.55;;
47367;SDS011;34646;47.964;7.982;2023-05-07T04:23:31;0.90;;;0.60;;
47367;SDS011;34646;47.964;7.982;2023-05-07T04:29:36;1.70;;;1.00;;
47367;SDS011;34646;47.964;7.982;2023-05-07T04:35:37;0.90;;;0.70;;
47367;SDS011;34646;47.964;7.982;2023-05-07T04:41:39;1.17;;;0.73;;
47367;SDS011;34646;47.964;7.982;2023-05-07T04:47:41;1.15;;;0.70;;
47367;SDS011;34646;47.964;7.982;2023-05-07T04:53:43;0.98;;;0.70;;
47367;SDS011;34646;47.964;7.982;2023-05-07T04:59:44;1.10;;;0.70;;
47367;SDS011;34646;47.964;7.982;2023-05-07T05:05:46;1.10;;;0.70;;
47367;SDS011;34646;47.964;7.982;2023-05-07T05:11:49;1.02;;;0.77;;
47367;SDS011;34646;47.964;7.982;2023-05-07T05:17:50;1.17;;;0.80;;
47367;SDS011;34646;47.964;7.982;2023-05-07T05:23:52;1.00;;;0.70;;
47367;SDS011;34646;47.964;7.982;2023-05-07T05:29:56;0.90;;;0.60;;
47367;SDS011;34646;47.964;7.982;2023-05-07T05:35:58;1.00;;;0.70;;
47367;SDS011;34646;47.964;7.982;2023-05-07T05:41:59;1.17;;;0.70;;
47367;SDS011;34646;47.964;7.982;2023-05-07T05:48:01;1.00;;;0.80;;
47367;SDS011;34646;47.964;7.982;2023-05-07T05:54:03;0.70;;;0.60;;
47367;SDS011;34646;47.964;7.982;2023-05-07T06:00:06;0.90;;;0.70;;
47367;SDS011;34646;47.964;7.982;2023-05-07T06:06:18;0.70;;;0.60;;
47367;SDS011;34646;47.964;7.982;2023-05-07T06:18:22;0.98;;;0.68;;
47367;SDS011;34646;47.964;7.982;2023-05-07T06:24:22;0.87;;;0.67;;
47367;SDS011;34646;47.964;7.982;2023-05-07T06:30:24;1.20;;;0.93;;
47367;SDS011;34646;47.964;7.982;2023-05-07T06:36:25;1.35;;;0.68;;
47367;SDS011;34646;47.964;7.982;2023-05-07T06:42:30;1.20;;;0.85;;
47367;SDS011;34646;47.964;7.982;2023-05-07T06:48:34;1.02;;;0.73;;
47367;SDS011;34646;47.964;7.982;2023-05-07T06:54:39;1.10;;;0.88;;
47367;SDS011;34646;47.964;7.982;2023-05-07T07:00:40;1.00;;;0.70;;
47367;SDS011;34646;47.964;7.982;2023-05-07T07:06:41;0.90;;;0.68;;
47367;SDS011;34646;47.964;7.982;2023-05-07T07:12:45;0.88;;;0.68;;
47367;SDS011;34646;47.964;7.982;2023-05-07T07:18:46;1.08;;;0.70;;
47367;SDS011;34646;47.964;7.982;2023-05-07T07:30:50;0.70;;;0.60;;
47367;SDS011;34646;47.964;7.982;2023-05-07T07:36:52;1.25;;;0.85;;
47367;SDS011;34646;47.964;7.982;2023-05-07T07:48:54;1.10;;;0.80;;
47367;SDS011;34646;47.964;7.982;2023-05-07T07:54:55;0.90;;;0.50;;
47367;SDS011;34646;47.964;7.982;2023-05-07T08:06:59;1.15;;;0.75;;
47367;SDS011;34646;47.964;7.982;2023-05-07T08:13:00;1.00;;;0.60;;
47367;SDS011;34646;47.964;7.982;2023-05-07T08:19:04;1.23;;;0.90;;
47367;SDS011;34646;47.964;7.982;2023-05-07T08:31:07;1.43;;;0.80;;
47367;SDS011;34646;47.964;7.982;2023-05-07T08:37:13;0.90;;;0.70;;
47367;SDS011;34646;47.964;7.982;2023-05-07T08:43:14;1.10;;;0.70;;
47367;SDS011;34646;47.964;7.982;2023-05-07T08:49:16;1.23;;;0.80;;
47367;SDS011;34646;47.964;7.982;2023-05-07T08:55:17;1.15;;;0.70;;
47367;SDS011;34646;47.964;7.982;2023-05-07T09:01:19;1.30;;;0.70;;
47367;SDS011;34646;47.964;7.982;2023-05-07T09:07:25;0.85;;;0.68;;
47367;SDS011;34646;47.964;7.982;2023-05-07T09:13:27;1.13;;;0.80;;
47367;SDS011;34646;47.964;7.982;2023-05-07T09:25:33;1.02;;;0.82;;
47367;SDS011;34646;47.964;7.982;2023-05-07T09:31:40;1.15;;;0.90;;
47367;SDS011;34646;47.964;7.982;2023-05-07T09:37:44;1.40;;;0.90;;
47367;SDS011;34646;47.964;7.982;2023-05-07T09:49:55;0.80;;;0.70;;
47367;SDS011;34646;47.964;7.982;2023-05-07T09:56:00;0.90;;;0.80;;
47367;SDS011;34646;47.964;7.982;2023-05-07T10:02:03;0.85;;;0.70;;
47367;SDS011;34646;47.964;7.982;2023-05-07T10:08:07;1.17;;;0.80;;
47367;SDS011;34646;47.964;7.982;2023-05-07T10:14:10;1.10;;;0.70;;
47367;SDS011;34646;47.964;7.982;2023-05-07T10:20:14;1.13;;;0.80;;
47367;SDS011;34646;47.964;7.982;2023-05-07T10:26:20;1.08;;;0.80;;
47367;SDS011;34646;47.964;7.982;2023-05-07T10:32:33;1.00;;;0.70;;
47367;SDS011;34646;47.964;7.982;2023-05-07T10:38:45;1.23;;;0.80;;
47367;SDS011;34646;47.964;7.982;2023-05-07T10:51:17;0.90;;;0.70;;
47367;SDS011;34646;47.964;7.982;2023-05-07T11:04:12;1.00;;;0.85;;
47367;SDS011;34646;47.964;7.982;2023-05-07T11:10:13;1.33;;;0.90;;
47367;SDS011;34646;47.964;7.982;2023-05-07T11:16:22;1.20;;;0.85;;
47367;SDS011;34646;47.964;7.982;2023-05-07T11:28:42;0.80;;;0.60;;
47367;SDS011;34646;47.964;7.982;2023-05-07T11:34:44;1.25;;;0.82;;
47367;SDS011;34646;47.964;7.982;2023-05-07T11:40:54;1.10;;;0.75;;
47367;SDS011;34646;47.964;7.982;2023-05-07T11:46:56;0.60;;;0.50;;
47367;SDS011;34646;47.964;7.982;2023-05-07T11:52:57;1.10;;;0.70;;
47367;SDS011;34646;47.964;7.982;2023-05-07T11:58:58;1.03;;;0.77;;
47367;SDS011;34646;47.964;7.982;2023-05-07T12:05:00;1.73;;;0.87;;
47367;SDS011;34646;47.964;7.982;2023-05-07T12:11:00;1.05;;;0.80;;
47367;SDS011;34646;47.964;7.982;2023-05-07T12:17:01;1.67;;;0.80;;
47367;SDS011;34646;47.964;7.982;2023-05-07T12:23:03;1.08;;;0.80;;
47367;SDS011;34646;47.964;7.982;2023-05-07T12:29:04;1.17;;;0.80;;
47367;SDS011;34646;47.964;7.982;2023-05-07T12:35:06;0.90;;;0.70;;
47367;SDS011;34646;47.964;7.982;2023-05-07T12:41:08;1.48;;;0.93;;
47367;SDS011;34646;47.964;7.982;2023-05-07T12:47:10;0.93;;;0.80;;
47367;SDS011;34646;47.964;7.982;2023-05-07T12:53:11;0.98;;;0.65;;
47367;SDS011;34646;47.964;7.982;2023-05-07T12:59:12;1.00;;;0.70;;
47367;SDS011;34646;47.964;7.982;2023-05-07T13:05:13;1.30;;;0.90;;
47367;SDS011;34646;47.964;7.982;2023-05-07T13:11:14;0.90;;;0.73;;
47367;SDS011;34646;47.964;7.982;2023-05-07T13:17:15;0.97;;;0.77;;
47367;SDS011;34646;47.964;7.982;2023-05-07T13:23:17;2.15;;;0.63;;
47367;SDS011;34646;47.964;7.982;2023-05-07T13:29:18;1.40;;;0.90;;
47367;SDS011;34646;47.964;7.982;2023-05-07T13:35:19;9.13;;;1.23;;
47367;SDS011;34646;47.964;7.982;2023-05-07T13:41:21;3.40;;;1.10;;
47367;SDS011;34646;47.964;7.982;2023-05-07T13:47:22;2.73;;;0.90;;
47367;SDS011;34646;47.964;7.982;2023-05-07T13:53:23;7.05;;;1.02;;
47367;SDS011;34646;47.964;7.982;2023-05-07T13:59:24;8.88;;;1.00;;
47367;SDS011;34646;47.964;7.982;2023-05-07T14:05:25;5.20;;;0.65;;
47367;SDS011;34646;47.964;7.982;2023-05-07T14:11:27;7.68;;;0.93;;
47367;SDS011;34646;47.964;7.982;2023-05-07T14:17:29;1.53;;;0.70;;
47367;SDS011;34646;47.964;7.982;2023-05-07T14:23:30;2.10;;;0.93;;
47367;SDS011;34646;47.964;7.982;2023-05-07T14:29:31;2.33;;;0.63;;
47367;SDS011;34646;47.964;7.982;2023-05-07T14:35:32;2.03;;;0.80;;
47367;SDS011;34646;47.964;7.982;2023-05-07T14:41:33;4.93;;;1.00;;
47367;SDS011;34646;47.964;7.982;2023-05-07T14:47:34;6.13;;;1.05;;
47367;SDS011;34646;47.964;7.982;2023-05-07T14:53:35;5.32;;;1.00;;
47367;SDS011;34646;47.964;7.982;2023-05-07T14:59:37;4.13;;;1.23;;
47367;SDS011;34646;47.964;7.982;2023-05-07T15:11:39;9.32;;;1.20;;
47367;SDS011;34646;47.964;7.982;2023-05-07T15:17:40;7.50;;;1.00;;
47367;SDS011;34646;47.964;7.982;2023-05-07T15:23:41;4.57;;;1.10;;
47367;SDS011;34646;47.964;7.982;2023-05-07T15:29:44;8.60;;;1.85;;
47367;SDS011;34646;47.964;7.982;2023-05-07T15:35:45;3.33;;;1.00;;
47367;SDS011;34646;47.964;7.982;2023-05-07T15:41:47;2.28;;;1.00;;
47367;SDS011;34646;47.964;7.982;2023-05-07T15:47:48;5.68;;;1.25;;
47367;SDS011;34646;47.964;7.982;2023-05-07T15:53:50;8.20;;;1.25;;
47367;SDS011;34646;47.964;7.982;2023-05-07T15:59:52;5.07;;;1.10;;
47367;SDS011;34646;47.964;7.982;2023-05-07T16:05:53;4.97;;;1.00;;
47367;SDS011;34646;47.964;7.982;2023-05-07T16:11:56;5.68;;;1.30;;
47367;SDS011;34646;47.964;7.982;2023-05-07T16:17:57;3.87;;;1.10;;
47367;SDS011;34646;47.964;7.982;2023-05-07T16:23:58;5.07;;;1.38;;
47367;SDS011;34646;47.964;7.982;2023-05-07T16:30:00;6.80;;;1.30;;
47367;SDS011;34646;47.964;7.982;2023-05-07T16:36:01;6.23;;;1.10;;
47367;SDS011;34646;47.964;7.982;2023-05-07T16:42:02;8.30;;;1.05;;
47367;SDS011;34646;47.964;7.982;2023-05-07T16:48:03;4.17;;;0.97;;
47367;SDS011;34646;47.964;7.982;2023-05-07T16:54:04;3.58;;;1.00;;
47367;SDS011;34646;47.964;7.982;2023-05-07T17:00:05;6.15;;;1.10;;
47367;SDS011;34646;47.964;7.982;2023-05-07T17:06:06;3.85;;;1.73;;
47367;SDS011;34646;47.964;7.982;2023-05-07T17:12:13;2.85;;;1.08;;
47367;SDS011;34646;47.964;7.982;2023-05-07T17:18:14;3.95;;;1.70;;
47367;SDS011;34646;47.964;7.982;2023-05-07T17:24:16;8.23;;;2.33;;
47367;SDS011;34646;47.964;7.982;2023-05-07T17:30:16;8.05;;;2.53;;
47367;SDS011;34646;47.964;7.982;2023-05-07T17:36:17;7.97;;;2.70;;
47367;SDS011;34646;47.964;7.982;2023-05-07T17:42:18;12.10;;;2.90;;
47367;SDS011;34646;47.964;7.982;2023-05-07T17:48:19;17.97;;;3.83;;
47367;SDS011;34646;47.964;7.982;2023-05-07T17:54:21;16.43;;;4.47;;
47367;SDS011;34646;47.964;7.982;2023-05-07T18:00:25;10.02;;;3.85;;
47367;SDS011;34646;47.964;7.982;2023-05-07T18:06:26;17.00;;;3.55;;
47367;SDS011;34646;47.964;7.982;2023-05-07T18:12:27;11.57;;;4.10;;
47367;SDS011;34646;47.964;7.982;2023-05-07T18:18:27;13.87;;;4.00;;
47367;SDS011;34646;47.964;7.982;2023-05-07T18:24:29;15.30;;;4.30;;
47367;SDS011;34646;47.964;7.982;2023-05-07T18:30:30;16.43;;;3.90;;
47367;SDS011;34646;47.964;7.982;2023-05-07T18:36:31;12.90;;;3.87;;
47367;SDS011;34646;47.964;7.982;2023-05-07T18:42:32;13.73;;;3.85;;
47367;SDS011;34646;47.964;7.982;2023-05-07T18:48:33;19.37;;;5.00;;
47367;SDS011;34646;47.964;7.982;2023-05-07T18:54:34;16.83;;;4.10;;
47367;SDS011;34646;47.964;7.982;2023-05-07T19:00:34;19.20;;;4.37;;
47367;SDS011;34646;47.964;7.982;2023-05-07T19:06:35;12.20;;;4.10;;
47367;SDS011;34646;47.964;7.982;2023-05-07T19:12:36;13.97;;;4.17;;
47367;SDS011;34646;47.964;7.982;2023-05-07T19:18:38;15.50;;;4.55;;
47367;SDS011;34646;47.964;7.982;2023-05-07T19:24:39;21.17;;;3.92;;
47367;SDS011;34646;47.964;7.982;2023-05-07T19:30:41;11.48;;;4.03;;
47367;SDS011;34646;47.964;7.982;2023-05-07T19:36:42;14.23;;;4.07;;
47367;SDS011;34646;47.964;7.982;2023-05-07T19:42:44;11.25;;;3.70;;
47367;SDS011;34646;47.964;7.982;2023-05-07T19:48:45;11.95;;;4.00;;
47367;SDS011;34646;47.964;7.982;2023-05-07T19:54:46;11.25;;;3.80;;
47367;SDS011;34646;47.964;7.982;2023-05-07T20:00:47;13.93;;;3.70;;
47367;SDS011;34646;47.964;7.982;2023-05-07T20:06:48;10.00;;;3.77;;
47367;SDS011;34646;47.964;7.982;2023-05-07T20:12:49;12.93;;;4.30;;
47367;SDS011;34646;47.964;7.982;2023-05-07T20:18:50;10.93;;;4.20;;
47367;SDS011;34646;47.964;7.982;2023-05-07T20:24:50;7.83;;;3.60;;
47367;SDS011;34646;47.964;7.982;2023-05-07T20:30:51;11.63;;;3.83;;
47367;SDS011;34646;47.964;7.982;2023-05-07T20:36:53;14.23;;;3.95;;
47367;SDS011;34646;47.964;7.982;2023-05-07T20:42:53;13.37;;;4.60;;
47367;SDS011;34646;47.964;7.982;2023-05-07T20:48:54;10.80;;;3.65;;
47367;SDS011;34646;47.964;7.982;2023-05-07T20:54:55;16.97;;;3.53;;
47367;SDS011;34646;47.964;7.982;2023-05-07T21:00:56;10.07;;;3.55;;
47367;SDS011;34646;47.964;7.982;2023-05-07T21:06:58;8.02;;;3.22;;
47367;SDS011;34646;47.964;7.982;2023-05-07T21:12:59;9.40;;;3.38;;
47367;SDS011;34646;47.964;7.982;2023-05-07T21:18:59;8.57;;;3.37;;
47367;SDS011;34646;47.964;7.982;2023-05-07T21:25:01;9.20;;;3.67;;
47367;SDS011;34646;47.964;7.982;2023-05-07T21:31:02;11.00;;;3.47;;
47367;SDS011;34646;47.964;7.982;2023-05-07T21:37:03;8.30;;;3.38;;
47367;SDS011;34646;47.964;7.982;2023-05-07T21:43:04;7.10;;;3.38;;
47367;SDS011;34646;47.964;7.982;2023-05-07T21:49:05;10.07;;;3.40;;
47367;SDS011;34646;47.964;7.982;2023-05-07T21:55:08;8.38;;;3.78;;
47367;SDS011;34646;47.964;7.982;2023-05-07T22:01:09;11.23;;;3.30;;
47367;SDS011;34646;47.964;7.982;2023-05-07T22:07:11;6.95;;;3.20;;
47367;SDS011;34646;47.964;7.982;2023-05-07T22:13:12;8.82;;;2.83;;
47367;SDS011;34646;47.964;7.982;2023-05-07T22:19:13;7.45;;;3.05;;
47367;SDS011;34646;47.964;7.982;2023-05-07T22:25:14;5.70;;;3.50;;
47367;SDS011;34646;47.964;7.982;2023-05-07T22:31:16;9.82;;;3.25;;
47367;SDS011;34646;47.964;7.982;2023-05-07T22:37:17;9.75;;;3.60;;
47367;SDS011;34646;47.964;7.982;2023-05-07T22:43:18;15.10;;;3.60;;
47367;SDS011;34646;47.964;7.982;2023-05-07T22:49:19;8.90;;;3.23;;
47367;SDS011;34646;47.964;7.982;2023-05-07T22:55:20;6.60;;;3.30;;
47367;SDS011;34646;47.964;7.982;2023-05-07T23:01:21;7.18;;;2.92;;
47367;SDS011;34646;47.964;7.982;2023-05-07T23:07:22;10.60;;;3.23;;
47367;SDS011;34646;47.964;7.982;2023-05-07T23:13:23;10.20;;;3.30;;
47367;SDS011;34646;47.964;7.982;2023-05-07T23:19:24;8.07;;;2.95;;
47367;SDS011;34646;47.964;7.982;2023-05-07T23:25:25;7.30;;;3.17;;
47367;SDS011;34646;47.964;7.982;2023-05-07T23:31:26;5.55;;;2.95;;
47367;SDS011;34646;47.964;7.982;2023-05-07T23:37:27;5.53;;;2.93;;
47367;SDS011;34646;47.964;7.982;2023-05-07T23:43:28;5.13;;;2.40;;
47367;SDS011;34646;47.964;7.982;2023-05-07T23:49:29;5.57;;;3.17;;
47367;SDS011;34646;47.964;7.982;2023-05-07T23:55:30;5.83;;;3.10;;
